sensor_id;sensor_type;location;lat;lon;timestamp;pressure;altitude;pressure_sealevel;temperature;humidity
64908;BME280;51412;52.236;5.188;2022-08-20T00:01:05;101545.75;;;21.34;92.15
64908;BME280;51412;52.236;5.188;2022-08-20T00:03:34;101544.97;;;21.33;91.76
64908;BME280;51412;52.236;5.188;2022-08-20T00:06:04;101543.47;;;21.32;91.55
64908;BME280;51412;52.236;5.188;2022-08-20T00:08:32;101544.22;;;21.33;91.26
64908;BME280;51412;52.236;5.188;2022-08-20T00:11:00;101543.47;;;21.32;91.46
64908;BME280;51412;52.236;5.188;2022-08-20T00:13:29;101552.28;;;21.36;90.79
64908;BME280;51412;52.236;5.188;2022-08-20T00:15:56;101541.03;;;21.38;90.81
64908;BME280;51412;52.236;5.188;2022-08-20T00:18:24;101556.06;;;21.39;90.48
64908;BME280;51412;52.236;5.188;2022-08-20T00:20:52;101557.69;;;21.36;90.28
64908;BME280;51412;52.236;5.188;2022-08-20T00:23:20;101558.84;;;21.35;90.56
64908;BME280;51412;52.236;5.188;2022-08-20T00:25:48;101561.22;;;21.33;90.34
64908;BME280;51412;52.236;5.188;2022-08-20T00:28:15;101560.09;;;21.31;90.59
64908;BME280;51412;52.236;5.188;2022-08-20T00:30:43;101561.31;;;21.30;90.10
64908;BME280;51412;52.236;5.188;2022-08-20T00:33:12;101562.06;;;21.30;90.02
64908;BME280;51412;52.236;5.188;2022-08-20T00:35:41;101556.97;;;21.32;90.36
64908;BME280;51412;52.236;5.188;2022-08-20T00:38:08;101543.47;;;21.32;90.01
64908;BME280;51412;52.236;5.188;2022-08-20T00:40:37;101559.19;;;21.37;89.90
64908;BME280;51412;52.236;5.188;2022-08-20T00:43:23;101557.69;;;21.36;89.90
64908;BME280;51412;52.236;5.188;2022-08-20T00:45:51;101561.88;;;21.37;89.86
64908;BME280;51412;52.236;5.188;2022-08-20T00:48:20;101562.31;;;21.36;89.57
64908;BME280;51412;52.236;5.188;2022-08-20T00:50:47;101564.69;;;21.34;89.81
64908;BME280;51412;52.236;5.188;2022-08-20T00:53:14;101557.41;;;21.31;89.75
64908;BME280;51412;52.236;5.188;2022-08-20T00:55:42;101556.22;;;21.32;90.55
64908;BME280;51412;52.236;5.188;2022-08-20T00:58:10;101558.59;;;21.30;90.37
64908;BME280;51412;52.236;5.188;2022-08-20T01:00:39;101570.09;;;21.34;90.59
64908;BME280;51412;52.236;5.188;2022-08-20T01:03:09;101564.69;;;21.34;90.64
64908;BME280;51412;52.236;5.188;2022-08-20T01:05:37;101554.97;;;21.36;90.36
64908;BME280;51412;52.236;5.188;2022-08-20T01:08:04;101563.84;;;21.37;89.91
64908;BME280;51412;52.236;5.188;2022-08-20T01:10:34;101566.19;;;21.35;89.25
64908;BME280;51412;52.236;5.188;2022-08-20T01:13:04;101568.56;;;21.33;89.27
64908;BME280;51412;52.236;5.188;2022-08-20T01:15:37;101566.28;;;21.31;90.06
64908;BME280;51412;52.236;5.188;2022-08-20T01:18:05;101564.75;;;21.30;90.40
64908;BME280;51412;52.236;5.188;2022-08-20T01:20:37;101574.03;;;21.29;89.67
64908;BME280;51412;52.236;5.188;2022-08-20T01:23:20;101565.31;;;21.22;89.66
64908;BME280;51412;52.236;5.188;2022-08-20T01:25:57;101576.47;;;21.24;89.62
64908;BME280;51412;52.236;5.188;2022-08-20T01:28:30;101565.72;;;21.20;89.61
64908;BME280;51412;52.236;5.188;2022-08-20T01:30:57;101558.84;;;21.19;89.43
64908;BME280;51412;52.236;5.188;2022-08-20T01:33:24;101565.84;;;21.16;89.31
64908;BME280;51412;52.236;5.188;2022-08-20T01:35:51;101559.31;;;21.14;89.30
64908;BME280;51412;52.236;5.188;2022-08-20T01:38:18;101573.69;;;21.11;88.67
64908;BME280;51412;52.236;5.188;2022-08-20T01:41:03;101569.94;;;21.05;88.19
64908;BME280;51412;52.236;5.188;2022-08-20T01:43:32;101562.31;;;20.99;88.17
64908;BME280;51412;52.236;5.188;2022-08-20T01:45:59;101569.72;;;20.95;87.97
64908;BME280;51412;52.236;5.188;2022-08-20T01:48:27;101572.09;;;20.93;87.72
64908;BME280;51412;52.236;5.188;2022-08-20T01:50:59;101566.81;;;20.86;87.70
64908;BME280;51412;52.236;5.188;2022-08-20T01:53:32;101563.78;;;20.84;87.78
64908;BME280;51412;52.236;5.188;2022-08-20T01:56:02;101575.75;;;20.83;88.42
64908;BME280;51412;52.236;5.188;2022-08-20T01:58:29;101572.63;;;20.84;88.68
64908;BME280;51412;52.236;5.188;2022-08-20T02:00:56;101572.22;;;20.86;88.94
64908;BME280;51412;52.236;5.188;2022-08-20T02:03:23;101572.16;;;20.90;88.76
64908;BME280;51412;52.236;5.188;2022-08-20T02:05:50;101571.69;;;20.95;88.78
64908;BME280;51412;52.236;5.188;2022-08-20T02:08:18;101578.94;;;20.98;88.24
64908;BME280;51412;52.236;5.188;2022-08-20T02:10:44;101575.06;;;20.99;87.51
64908;BME280;51412;52.236;5.188;2022-08-20T02:13:12;101579.34;;;20.96;87.34
64908;BME280;51412;52.236;5.188;2022-08-20T02:15:39;101578.66;;;20.92;87.45
64908;BME280;51412;52.236;5.188;2022-08-20T02:18:09;101578.72;;;20.89;87.72
64908;BME280;51412;52.236;5.188;2022-08-20T02:20:36;101575.28;;;20.88;86.73
64908;BME280;51412;52.236;5.188;2022-08-20T02:23:05;101585.38;;;20.84;86.77
64908;BME280;51412;52.236;5.188;2022-08-20T02:25:33;101583.09;;;20.82;86.78
64908;BME280;51412;52.236;5.188;2022-08-20T02:28:03;101584.69;;;20.80;86.95
64908;BME280;51412;52.236;5.188;2022-08-20T02:30:35;101583.22;;;20.75;86.16
64908;BME280;51412;52.236;5.188;2022-08-20T02:33:05;101573.69;;;20.71;86.31
64908;BME280;51412;52.236;5.188;2022-08-20T02:35:32;101579.50;;;20.69;86.27
64908;BME280;51412;52.236;5.188;2022-08-20T02:37:59;101575.66;;;20.66;87.30
64908;BME280;51412;52.236;5.188;2022-08-20T02:40:27;101576.06;;;20.65;87.27
64908;BME280;51412;52.236;5.188;2022-08-20T02:42:54;101575.28;;;20.64;87.49
64908;BME280;51412;52.236;5.188;2022-08-20T02:45:21;101580.38;;;20.62;87.52
64908;BME280;51412;52.236;5.188;2022-08-20T02:47:49;101576.47;;;20.63;87.48
64908;BME280;51412;52.236;5.188;2022-08-20T02:50:18;101578.09;;;20.61;87.66
64908;BME280;51412;52.236;5.188;2022-08-20T02:52:45;101581.13;;;20.63;87.63
64908;BME280;51412;52.236;5.188;2022-08-20T02:55:13;101586.09;;;20.64;87.08
64908;BME280;51412;52.236;5.188;2022-08-20T02:57:39;101582.28;;;20.62;87.16
64908;BME280;51412;52.236;5.188;2022-08-20T03:00:07;101581.16;;;20.59;86.79
64908;BME280;51412;52.236;5.188;2022-08-20T03:02:35;101584.69;;;20.56;87.07
64908;BME280;51412;52.236;5.188;2022-08-20T03:05:03;101584.00;;;20.52;87.01
64908;BME280;51412;52.236;5.188;2022-08-20T03:07:30;101575.91;;;20.52;87.78
64908;BME280;51412;52.236;5.188;2022-08-20T03:09:57;101582.91;;;20.49;87.27
64908;BME280;51412;52.236;5.188;2022-08-20T03:12:24;101581.78;;;20.47;87.29
64908;BME280;51412;52.236;5.188;2022-08-20T03:14:50;101586.84;;;20.45;87.41
64908;BME280;51412;52.236;5.188;2022-08-20T03:17:17;101581.50;;;20.41;87.61
64908;BME280;51412;52.236;5.188;2022-08-20T03:19:43;101579.25;;;20.36;87.93
64908;BME280;51412;52.236;5.188;2022-08-20T03:22:11;101583.16;;;20.35;88.57
64908;BME280;51412;52.236;5.188;2022-08-20T03:24:38;101581.97;;;20.36;88.53
64908;BME280;51412;52.236;5.188;2022-08-20T03:27:04;101591.25;;;20.35;88.71
64908;BME280;51412;52.236;5.188;2022-08-20T03:29:31;101585.88;;;20.35;89.12
64908;BME280;51412;52.236;5.188;2022-08-20T03:31:57;101586.25;;;20.33;89.22
64908;BME280;51412;52.236;5.188;2022-08-20T03:34:23;101590.91;;;20.33;89.22
64908;BME280;51412;52.236;5.188;2022-08-20T03:36:50;101590.16;;;20.32;89.23
64908;BME280;51412;52.236;5.188;2022-08-20T03:39:18;101572.41;;;20.31;89.49
64908;BME280;51412;52.236;5.188;2022-08-20T03:41:44;101577.03;;;20.31;89.59
64908;BME280;51412;52.236;5.188;2022-08-20T03:44:11;101578.66;;;20.28;89.54
64908;BME280;51412;52.236;5.188;2022-08-20T03:46:37;101584.38;;;20.30;89.27
64908;BME280;51412;52.236;5.188;2022-08-20T03:49:04;101589.03;;;20.30;88.84
64908;BME280;51412;52.236;5.188;2022-08-20T03:51:31;101596.34;;;20.29;88.57
64908;BME280;51412;52.236;5.188;2022-08-20T03:53:58;101594.84;;;20.28;88.06
64908;BME280;51412;52.236;5.188;2022-08-20T03:56:26;101594.47;;;20.26;87.52
64908;BME280;51412;52.236;5.188;2022-08-20T03:58:52;101595.31;;;20.23;87.17
64908;BME280;51412;52.236;5.188;2022-08-20T04:01:19;101595.72;;;20.22;86.81
64908;BME280;51412;52.236;5.188;2022-08-20T04:03:46;101597.31;;;20.19;86.94
64908;BME280;51412;52.236;5.188;2022-08-20T04:06:12;101590.41;;;20.14;87.05
64908;BME280;51412;52.236;5.188;2022-08-20T04:08:39;101602.41;;;20.13;86.88
64908;BME280;51412;52.236;5.188;2022-08-20T04:11:06;101599.75;;;20.10;86.53
64908;BME280;51412;52.236;5.188;2022-08-20T04:13:34;101606.78;;;20.03;86.38
64908;BME280;51412;52.236;5.188;2022-08-20T04:16:02;101599.16;;;19.98;86.20
64908;BME280;51412;52.236;5.188;2022-08-20T04:18:33;101606.16;;;19.96;86.24
64908;BME280;51412;52.236;5.188;2022-08-20T04:21:02;101602.75;;;19.92;86.14
64908;BME280;51412;52.236;5.188;2022-08-20T04:23:32;101598.13;;;19.89;85.97
64908;BME280;51412;52.236;5.188;2022-08-20T04:26:00;101607.81;;;19.86;85.72
64908;BME280;51412;52.236;5.188;2022-08-20T04:28:27;101602.81;;;19.84;85.00
64908;BME280;51412;52.236;5.188;2022-08-20T04:30:57;101617.88;;;19.82;84.39
64908;BME280;51412;52.236;5.188;2022-08-20T04:33:25;101616.75;;;19.79;84.15
64908;BME280;51412;52.236;5.188;2022-08-20T04:35:53;101623.72;;;19.77;83.61
64908;BME280;51412;52.236;5.188;2022-08-20T04:38:21;101621.50;;;19.72;83.60
64908;BME280;51412;52.236;5.188;2022-08-20T04:40:48;101626.16;;;19.67;83.85
64908;BME280;51412;52.236;5.188;2022-08-20T04:43:24;101631.94;;;19.66;84.25
64908;BME280;51412;52.236;5.188;2022-08-20T04:45:52;101627.03;;;19.61;84.46
64908;BME280;51412;52.236;5.188;2022-08-20T04:48:20;101631.34;;;19.55;84.88
64908;BME280;51412;52.236;5.188;2022-08-20T04:50:49;101634.78;;;19.55;85.08
64908;BME280;51412;52.236;5.188;2022-08-20T04:53:19;101639.84;;;19.53;85.25
64908;BME280;51412;52.236;5.188;2022-08-20T04:55:46;101638.72;;;19.50;84.77
64908;BME280;51412;52.236;5.188;2022-08-20T04:58:15;101631.44;;;19.47;84.91
64908;BME280;51412;52.236;5.188;2022-08-20T05:00:44;101638.75;;;19.47;85.33
64908;BME280;51412;52.236;5.188;2022-08-20T05:03:11;101636.41;;;19.49;85.96
64908;BME280;51412;52.236;5.188;2022-08-20T05:05:39;101632.09;;;19.55;85.77
64908;BME280;51412;52.236;5.188;2022-08-20T05:08:06;101634.34;;;19.60;85.33
64908;BME280;51412;52.236;5.188;2022-08-20T05:10:32;101640.44;;;19.64;85.92
64908;BME280;51412;52.236;5.188;2022-08-20T05:13:03;101647.94;;;19.84;85.55
64908;BME280;51412;52.236;5.188;2022-08-20T05:15:29;101649.16;;;20.07;86.12
64908;BME280;51412;52.236;5.188;2022-08-20T05:17:58;101641.72;;;20.38;87.03
64908;BME280;51412;52.236;5.188;2022-08-20T05:20:27;101642.75;;;20.68;84.87
64908;BME280;51412;52.236;5.188;2022-08-20T05:22:57;101647.59;;;21.00;83.99
64908;BME280;51412;52.236;5.188;2022-08-20T05:25:24;101646.72;;;21.27;82.24
64908;BME280;51412;52.236;5.188;2022-08-20T05:27:55;101657.84;;;21.49;80.56
64908;BME280;51412;52.236;5.188;2022-08-20T05:30:21;101659.00;;;21.68;79.35
64908;BME280;51412;52.236;5.188;2022-08-20T05:32:48;101664.13;;;21.83;78.52
64908;BME280;51412;52.236;5.188;2022-08-20T05:35:14;101660.38;;;21.93;76.53
64908;BME280;51412;52.236;5.188;2022-08-20T05:37:41;101658.88;;;21.92;76.07
64908;BME280;51412;52.236;5.188;2022-08-20T05:40:11;101661.91;;;21.94;75.42
64908;BME280;51412;52.236;5.188;2022-08-20T05:42:39;101671.56;;;22.12;75.38
64908;BME280;51412;52.236;5.188;2022-08-20T05:45:06;101666.75;;;22.19;74.83
64908;BME280;51412;52.236;5.188;2022-08-20T05:47:33;101671.91;;;22.30;74.83
64908;BME280;51412;52.236;5.188;2022-08-20T05:50:02;101676.88;;;22.35;73.41
64908;BME280;51412;52.236;5.188;2022-08-20T05:52:29;101667.22;;;22.34;73.11
64908;BME280;51412;52.236;5.188;2022-08-20T05:54:56;101671.78;;;22.37;73.20
64908;BME280;51412;52.236;5.188;2022-08-20T05:57:23;101675.16;;;22.42;72.82
64908;BME280;51412;52.236;5.188;2022-08-20T05:59:50;101669.72;;;22.42;72.82
64908;BME280;51412;52.236;5.188;2022-08-20T06:02:17;101683.44;;;22.51;72.32
64908;BME280;51412;52.236;5.188;2022-08-20T06:04:58;101678.78;;;22.51;71.69
64908;BME280;51412;52.236;5.188;2022-08-20T06:07:25;101678.88;;;22.48;69.85
64908;BME280;51412;52.236;5.188;2022-08-20T06:09:51;101680.47;;;22.29;69.04
64908;BME280;51412;52.236;5.188;2022-08-20T06:12:18;101686.47;;;22.03;69.76
64908;BME280;51412;52.236;5.188;2022-08-20T06:14:46;101687.78;;;21.79;69.21
64908;BME280;51412;52.236;5.188;2022-08-20T06:17:16;101680.13;;;21.57;69.92
64908;BME280;51412;52.236;5.188;2022-08-20T06:19:44;101687.81;;;21.39;70.39
64908;BME280;51412;52.236;5.188;2022-08-20T06:22:12;101679.63;;;21.22;71.02
64908;BME280;51412;52.236;5.188;2022-08-20T06:24:39;101677.19;;;21.08;71.43
64908;BME280;51412;52.236;5.188;2022-08-20T06:27:05;101676.97;;;20.98;71.54
64908;BME280;51412;52.236;5.188;2022-08-20T06:29:32;101679.47;;;20.89;72.09
64908;BME280;51412;52.236;5.188;2022-08-20T06:32:02;101680.38;;;20.82;72.65
64908;BME280;51412;52.236;5.188;2022-08-20T06:34:29;101670.44;;;20.76;73.26
64908;BME280;51412;52.236;5.188;2022-08-20T06:36:55;101677.44;;;20.73;73.27
64908;BME280;51412;52.236;5.188;2022-08-20T06:39:23;101673.63;;;20.71;73.44
64908;BME280;51412;52.236;5.188;2022-08-20T06:41:50;101682.13;;;20.69;73.50
64908;BME280;51412;52.236;5.188;2022-08-20T06:44:17;101690.25;;;20.69;73.43
64908;BME280;51412;52.236;5.188;2022-08-20T06:46:44;101693.69;;;20.69;72.90
64908;BME280;51412;52.236;5.188;2022-08-20T06:49:12;101687.03;;;20.74;72.83
64908;BME280;51412;52.236;5.188;2022-08-20T06:51:38;101685.47;;;20.77;72.07
64908;BME280;51412;52.236;5.188;2022-08-20T06:54:05;101687.34;;;20.80;71.55
64908;BME280;51412;52.236;5.188;2022-08-20T06:56:31;101687.28;;;20.83;72.06
64908;BME280;51412;52.236;5.188;2022-08-20T06:58:59;101689.88;;;20.91;72.46
64908;BME280;51412;52.236;5.188;2022-08-20T07:01:25;101695.81;;;21.02;72.25
64908;BME280;51412;52.236;5.188;2022-08-20T07:03:52;101699.38;;;21.19;74.24
64908;BME280;51412;52.236;5.188;2022-08-20T07:06:19;101690.72;;;21.48;73.99
64908;BME280;51412;52.236;5.188;2022-08-20T07:08:46;101695.22;;;21.75;72.91
64908;BME280;51412;52.236;5.188;2022-08-20T07:11:12;101706.75;;;21.95;71.05
64908;BME280;51412;52.236;5.188;2022-08-20T07:13:39;101700.19;;;22.13;71.19
64908;BME280;51412;52.236;5.188;2022-08-20T07:16:06;101698.66;;;22.28;70.43
64908;BME280;51412;52.236;5.188;2022-08-20T07:18:33;101702.66;;;22.40;68.99
64908;BME280;51412;52.236;5.188;2022-08-20T07:21:00;101700.13;;;22.49;68.31
64908;BME280;51412;52.236;5.188;2022-08-20T07:23:28;101704.41;;;22.63;68.03
64908;BME280;51412;52.236;5.188;2022-08-20T07:25:56;101701.13;;;22.72;66.56
64908;BME280;51412;52.236;5.188;2022-08-20T07:28:24;101704.81;;;22.78;66.70
64908;BME280;51412;52.236;5.188;2022-08-20T07:30:53;101708.13;;;22.86;65.66
64908;BME280;51412;52.236;5.188;2022-08-20T07:33:37;101712.34;;;22.87;65.21
64908;BME280;51412;52.236;5.188;2022-08-20T07:36:05;101708.25;;;22.95;65.59
64908;BME280;51412;52.236;5.188;2022-08-20T07:38:34;101712.31;;;23.03;64.43
64908;BME280;51412;52.236;5.188;2022-08-20T07:41:02;101714.94;;;23.07;62.23
64908;BME280;51412;52.236;5.188;2022-08-20T07:43:30;101718.66;;;23.13;62.67
64908;BME280;51412;52.236;5.188;2022-08-20T07:45:59;101721.94;;;23.21;62.44
64908;BME280;51412;52.236;5.188;2022-08-20T07:48:28;101724.78;;;23.30;62.68
64908;BME280;51412;52.236;5.188;2022-08-20T07:50:55;101723.31;;;23.42;61.57
64908;BME280;51412;52.236;5.188;2022-08-20T07:53:22;101728.09;;;23.51;61.46
64908;BME280;51412;52.236;5.188;2022-08-20T07:55:50;101723.97;;;23.59;59.82
64908;BME280;51412;52.236;5.188;2022-08-20T07:58:19;101723.75;;;23.66;59.22
64908;BME280;51412;52.236;5.188;2022-08-20T08:00:49;101733.66;;;23.73;59.04
64908;BME280;51412;52.236;5.188;2022-08-20T08:03:17;101732.69;;;23.80;57.79
64908;BME280;51412;52.236;5.188;2022-08-20T08:05:46;101735.88;;;23.91;58.36
64908;BME280;51412;52.236;5.188;2022-08-20T08:08:17;101745.22;;;24.03;57.48
64908;BME280;51412;52.236;5.188;2022-08-20T08:10:46;101741.75;;;24.15;56.50
64908;BME280;51412;52.236;5.188;2022-08-20T08:13:15;101739.44;;;24.27;54.60
64908;BME280;51412;52.236;5.188;2022-08-20T08:15:45;101742.28;;;24.36;53.44
64908;BME280;51412;52.236;5.188;2022-08-20T08:18:16;101750.63;;;24.42;54.33
64908;BME280;51412;52.236;5.188;2022-08-20T08:20:47;101742.69;;;24.47;53.52
64908;BME280;51412;52.236;5.188;2022-08-20T08:23:17;101750.19;;;24.56;54.27
64908;BME280;51412;52.236;5.188;2022-08-20T08:25:44;101742.88;;;24.66;53.50
64908;BME280;51412;52.236;5.188;2022-08-20T08:28:11;101747.09;;;24.80;52.39
64908;BME280;51412;52.236;5.188;2022-08-20T08:30:41;101745.34;;;24.86;49.92
64908;BME280;51412;52.236;5.188;2022-08-20T08:33:17;101732.03;;;24.88;50.83
64908;BME280;51412;52.236;5.188;2022-08-20T08:35:53;101740.28;;;24.97;49.64
64908;BME280;51412;52.236;5.188;2022-08-20T08:38:20;101741.56;;;25.05;49.33
64908;BME280;51412;52.236;5.188;2022-08-20T08:40:47;101741.63;;;25.15;48.67
64908;BME280;51412;52.236;5.188;2022-08-20T08:43:16;101750.16;;;25.26;48.81
64908;BME280;51412;52.236;5.188;2022-08-20T08:45:51;101744.81;;;25.35;48.54
64908;BME280;51412;52.236;5.188;2022-08-20T08:48:19;101750.31;;;25.45;47.97
64908;BME280;51412;52.236;5.188;2022-08-20T08:50:49;101735.56;;;25.55;45.96
64908;BME280;51412;52.236;5.188;2022-08-20T08:53:20;101745.88;;;25.60;46.80
64908;BME280;51412;52.236;5.188;2022-08-20T08:55:47;101749.84;;;25.68;46.76
64908;BME280;51412;52.236;5.188;2022-08-20T08:58:14;101752.28;;;25.76;45.60
64908;BME280;51412;52.236;5.188;2022-08-20T09:00:40;101755.63;;;25.80;45.48
64908;BME280;51412;52.236;5.188;2022-08-20T09:03:10;101757.31;;;25.86;45.09
64908;BME280;51412;52.236;5.188;2022-08-20T09:05:40;101759.19;;;25.99;46.04
64908;BME280;51412;52.236;5.188;2022-08-20T09:08:12;101757.16;;;26.12;45.06
64908;BME280;51412;52.236;5.188;2022-08-20T09:10:40;101751.41;;;26.19;44.89
64908;BME280;51412;52.236;5.188;2022-08-20T09:13:09;101764.59;;;26.21;43.07
64908;BME280;51412;52.236;5.188;2022-08-20T09:15:36;101762.78;;;26.27;44.11
64908;BME280;51412;52.236;5.188;2022-08-20T09:18:03;101757.81;;;26.35;42.17
64908;BME280;51412;52.236;5.188;2022-08-20T09:20:31;101758.31;;;26.43;43.37
64908;BME280;51412;52.236;5.188;2022-08-20T09:22:57;101753.75;;;26.49;41.52
64908;BME280;51412;52.236;5.188;2022-08-20T09:25:24;101747.09;;;26.50;42.44
64908;BME280;51412;52.236;5.188;2022-08-20T09:27:50;101756.94;;;26.56;42.20
64908;BME280;51412;52.236;5.188;2022-08-20T09:30:17;101755.59;;;26.61;41.61
64908;BME280;51412;52.236;5.188;2022-08-20T09:32:44;101749.25;;;26.64;41.47
64908;BME280;51412;52.236;5.188;2022-08-20T09:35:10;101755.16;;;26.72;41.35
64908;BME280;51412;52.236;5.188;2022-08-20T09:37:38;101761.22;;;26.85;41.88
64908;BME280;51412;52.236;5.188;2022-08-20T09:40:06;101751.25;;;27.01;41.04
64908;BME280;51412;52.236;5.188;2022-08-20T09:42:35;101749.53;;;27.13;38.55
64908;BME280;51412;52.236;5.188;2022-08-20T09:45:03;101756.84;;;27.16;39.34
64908;BME280;51412;52.236;5.188;2022-08-20T09:47:29;101750.00;;;27.20;39.17
64908;BME280;51412;52.236;5.188;2022-08-20T09:49:56;101752.41;;;27.28;39.18
64908;BME280;51412;52.236;5.188;2022-08-20T09:52:25;101754.41;;;27.36;39.83
64908;BME280;51412;52.236;5.188;2022-08-20T09:54:56;101747.09;;;27.43;38.96
64908;BME280;51412;52.236;5.188;2022-08-20T09:57:23;101751.22;;;27.38;38.38
64908;BME280;51412;52.236;5.188;2022-08-20T09:59:54;101757.28;;;27.42;39.38
64908;BME280;51412;52.236;5.188;2022-08-20T10:02:22;101742.88;;;27.42;38.96
64908;BME280;51412;52.236;5.188;2022-08-20T10:04:48;101748.13;;;27.36;38.18
64908;BME280;51412;52.236;5.188;2022-08-20T10:07:15;101743.75;;;27.48;38.61
64908;BME280;51412;52.236;5.188;2022-08-20T10:09:42;101753.44;;;27.58;39.63
64908;BME280;51412;52.236;5.188;2022-08-20T10:12:10;101745.59;;;27.51;39.80
64908;BME280;51412;52.236;5.188;2022-08-20T10:14:36;101749.34;;;27.53;38.97
64908;BME280;51412;52.236;5.188;2022-08-20T10:17:03;101750.41;;;27.56;38.06
64908;BME280;51412;52.236;5.188;2022-08-20T10:19:30;101747.94;;;27.67;38.28
64908;BME280;51412;52.236;5.188;2022-08-20T10:21:58;101750.00;;;27.82;38.85
64908;BME280;51412;52.236;5.188;2022-08-20T10:24:25;101748.75;;;28.01;39.71
64908;BME280;51412;52.236;5.188;2022-08-20T10:26:54;101748.22;;;28.12;38.07
64908;BME280;51412;52.236;5.188;2022-08-20T10:29:25;101743.22;;;28.11;37.49
64908;BME280;51412;52.236;5.188;2022-08-20T10:31:53;101745.84;;;28.05;37.70
64908;BME280;51412;52.236;5.188;2022-08-20T10:34:21;101741.13;;;28.05;37.27
64908;BME280;51412;52.236;5.188;2022-08-20T10:36:47;101745.19;;;28.10;38.90
64908;BME280;51412;52.236;5.188;2022-08-20T10:39:14;101744.81;;;28.02;36.71
64908;BME280;51412;52.236;5.188;2022-08-20T10:41:41;101744.44;;;28.10;37.09
64908;BME280;51412;52.236;5.188;2022-08-20T10:44:07;101749.78;;;28.04;36.70
64908;BME280;51412;52.236;5.188;2022-08-20T10:46:35;101747.66;;;28.08;37.15
64908;BME280;51412;52.236;5.188;2022-08-20T10:49:02;101742.06;;;28.02;36.44
64908;BME280;51412;52.236;5.188;2022-08-20T10:51:29;101749.03;;;28.03;36.38
64908;BME280;51412;52.236;5.188;2022-08-20T10:53:55;101748.13;;;28.06;36.75
64908;BME280;51412;52.236;5.188;2022-08-20T10:56:21;101742.94;;;27.99;37.58
64908;BME280;51412;52.236;5.188;2022-08-20T10:58:48;101742.94;;;27.99;38.21
64908;BME280;51412;52.236;5.188;2022-08-20T11:01:14;101746.88;;;28.08;38.52
64908;BME280;51412;52.236;5.188;2022-08-20T11:03:42;101742.53;;;28.25;37.07
64908;BME280;51412;52.236;5.188;2022-08-20T11:06:09;101745.78;;;28.38;37.27
64908;BME280;51412;52.236;5.188;2022-08-20T11:08:35;101736.94;;;28.44;36.60
64908;BME280;51412;52.236;5.188;2022-08-20T11:11:02;101731.91;;;28.27;35.85
64908;BME280;51412;52.236;5.188;2022-08-20T11:13:29;101753.03;;;28.27;36.95
64908;BME280;51412;52.236;5.188;2022-08-20T11:15:55;101745.84;;;28.29;37.08
64908;BME280;51412;52.236;5.188;2022-08-20T11:18:22;101739.56;;;28.38;37.68
64908;BME280;51412;52.236;5.188;2022-08-20T11:20:50;101732.34;;;28.50;37.48
64908;BME280;51412;52.236;5.188;2022-08-20T11:23:16;101737.13;;;28.64;37.07
64908;BME280;51412;52.236;5.188;2022-08-20T11:25:43;101741.31;;;28.75;36.67
64908;BME280;51412;52.236;5.188;2022-08-20T11:28:09;101744.97;;;28.71;36.18
64908;BME280;51412;52.236;5.188;2022-08-20T11:30:37;101738.28;;;28.72;36.12
64908;BME280;51412;52.236;5.188;2022-08-20T11:33:04;101743.09;;;28.78;35.58
64908;BME280;51412;52.236;5.188;2022-08-20T11:35:32;101749.59;;;28.80;35.55
64908;BME280;51412;52.236;5.188;2022-08-20T11:38:01;101738.84;;;28.77;35.86
64908;BME280;51412;52.236;5.188;2022-08-20T11:40:28;101746.69;;;28.69;36.22
64908;BME280;51412;52.236;5.188;2022-08-20T11:42:55;101744.69;;;28.69;37.35
64908;BME280;51412;52.236;5.188;2022-08-20T11:45:22;101752.31;;;28.65;36.93
64908;BME280;51412;52.236;5.188;2022-08-20T11:47:49;101743.03;;;28.63;37.90
64908;BME280;51412;52.236;5.188;2022-08-20T11:50:17;101747.41;;;28.69;37.10
64908;BME280;51412;52.236;5.188;2022-08-20T11:52:44;101746.69;;;28.69;37.83
64908;BME280;51412;52.236;5.188;2022-08-20T11:55:14;101740.78;;;28.61;37.52
64908;BME280;51412;52.236;5.188;2022-08-20T11:57:42;101742.25;;;28.47;37.42
64908;BME280;51412;52.236;5.188;2022-08-20T12:00:13;101741.47;;;28.22;37.21
64908;BME280;51412;52.236;5.188;2022-08-20T12:02:40;101737.94;;;27.98;37.92
64908;BME280;51412;52.236;5.188;2022-08-20T12:05:08;101745.47;;;27.79;38.98
64908;BME280;51412;52.236;5.188;2022-08-20T12:07:34;101742.19;;;27.65;39.63
64908;BME280;51412;52.236;5.188;2022-08-20T12:10:02;101752.06;;;27.53;38.57
64908;BME280;51412;52.236;5.188;2022-08-20T12:12:32;101743.28;;;27.49;39.49
64908;BME280;51412;52.236;5.188;2022-08-20T12:14:59;101746.47;;;27.57;39.65
64908;BME280;51412;52.236;5.188;2022-08-20T12:17:27;101748.13;;;27.54;38.80
64908;BME280;51412;52.236;5.188;2022-08-20T12:19:56;101747.88;;;27.43;38.72
64908;BME280;51412;52.236;5.188;2022-08-20T12:22:23;101746.81;;;27.41;39.75
64908;BME280;51412;52.236;5.188;2022-08-20T12:24:50;101745.53;;;27.60;39.17
64908;BME280;51412;52.236;5.188;2022-08-20T12:27:18;101740.47;;;27.77;38.96
64908;BME280;51412;52.236;5.188;2022-08-20T12:29:48;101739.50;;;27.89;37.85
64908;BME280;51412;52.236;5.188;2022-08-20T12:32:17;101738.09;;;28.03;37.35
64908;BME280;51412;52.236;5.188;2022-08-20T12:34:44;101734.75;;;27.99;36.54
64908;BME280;51412;52.236;5.188;2022-08-20T12:37:13;101726.25;;;28.06;37.40
64908;BME280;51412;52.236;5.188;2022-08-20T12:39:42;101738.97;;;28.10;36.88
64908;BME280;51412;52.236;5.188;2022-08-20T12:42:09;101733.97;;;28.08;39.46
64908;BME280;51412;52.236;5.188;2022-08-20T12:44:36;101736.84;;;28.14;39.03
64908;BME280;51412;52.236;5.188;2022-08-20T12:47:10;101728.94;;;28.16;37.11
64908;BME280;51412;52.236;5.188;2022-08-20T12:49:38;101733.69;;;28.06;37.03
64908;BME280;51412;52.236;5.188;2022-08-20T12:52:06;101728.56;;;27.89;37.20
64908;BME280;51412;52.236;5.188;2022-08-20T12:54:33;101724.22;;;27.83;37.50